sensor_id;sensor_type;location;lat;lon;timestamp;temperature;humidity
58582;DHT22;44361;51.476;5.700;2023-08-12T00:00:16;20.40;99.90
58582;DHT22;44361;51.476;5.700;2023-08-12T00:02:42;20.30;99.90
58582;DHT22;44361;51.476;5.700;2023-08-12T00:05:09;20.30;99.90
58582;DHT22;44361;51.476;5.700;2023-08-12T00:07:38;20.30;99.90
58582;DHT22;44361;51.476;5.700;2023-08-12T00:10:05;20.30;99.90
58582;DHT22;44361;51.476;5.700;2023-08-12T00:12:34;20.30;99.90
58582;DHT22;44361;51.476;5.700;2023-08-12T00:15:00;20.30;99.90
58582;DHT22;44361;51.476;5.700;2023-08-12T00:17:26;20.30;99.90
58582;DHT22;44361;51.476;5.700;2023-08-12T00:19:52;20.30;99.90
58582;DHT22;44361;51.476;5.700;2023-08-12T00:22:17;20.30;99.90
58582;DHT22;44361;51.476;5.700;2023-08-12T00:24:43;20.30;99.90
58582;DHT22;44361;51.476;5.700;2023-08-12T00:27:10;20.30;99.90
58582;DHT22;44361;51.476;5.700;2023-08-12T00:29:35;20.30;99.90
58582;DHT22;44361;51.476;5.700;2023-08-12T00:32:02;20.30;99.90
58582;DHT22;44361;51.476;5.700;2023-08-12T00:34:28;20.30;99.90
58582;DHT22;44361;51.476;5.700;2023-08-12T00:36:53;20.30;99.90
58582;DHT22;44361;51.476;5.700;2023-08-12T00:39:19;20.30;99.90
58582;DHT22;44361;51.476;5.700;2023-08-12T00:41:44;20.30;99.90
58582;DHT22;44361;51.476;5.700;2023-08-12T00:44:10;20.40;99.90
58582;DHT22;44361;51.476;5.700;2023-08-12T00:46:38;20.30;99.90
58582;DHT22;44361;51.476;5.700;2023-08-12T00:49:04;20.30;99.90
58582;DHT22;44361;51.476;5.700;2023-08-12T00:51:30;20.30;99.90
58582;DHT22;44361;51.476;5.700;2023-08-12T00:53:57;20.30;99.90
58582;DHT22;44361;51.476;5.700;2023-08-12T00:56:24;20.20;99.90
58582;DHT22;44361;51.476;5.700;2023-08-12T00:58:50;20.20;99.90
58582;DHT22;44361;51.476;5.700;2023-08-12T01:01:15;20.20;99.90
58582;DHT22;44361;51.476;5.700;2023-08-12T01:03:43;20.30;99.90
58582;DHT22;44361;51.476;5.700;2023-08-12T01:06:08;20.20;99.90
58582;DHT22;44361;51.476;5.700;2023-08-12T01:08:35;20.20;99.90
58582;DHT22;44361;51.476;5.700;2023-08-12T01:14:04;20.20;99.90
58582;DHT22;44361;51.476;5.700;2023-08-12T01:16:33;20.20;99.90
58582;DHT22;44361;51.476;5.700;2023-08-12T01:19:03;20.10;99.90
58582;DHT22;44361;51.476;5.700;2023-08-12T01:21:31;20.10;99.90
58582;DHT22;44361;51.476;5.700;2023-08-12T01:23:57;20.10;99.90
58582;DHT22;44361;51.476;5.700;2023-08-12T01:26:23;20.00;99.90
58582;DHT22;44361;51.476;5.700;2023-08-12T01:28:49;20.00;99.90
58582;DHT22;44361;51.476;5.700;2023-08-12T01:31:20;20.00;99.90
58582;DHT22;44361;51.476;5.700;2023-08-12T01:34:00;20.00;99.90
58582;DHT22;44361;51.476;5.700;2023-08-12T01:36:28;20.00;99.90
58582;DHT22;44361;51.476;5.700;2023-08-12T01:38:56;20.00;99.90
58582;DHT22;44361;51.476;5.700;2023-08-12T01:41:23;20.00;99.90
58582;DHT22;44361;51.476;5.700;2023-08-12T01:43:49;20.00;99.90
58582;DHT22;44361;51.476;5.700;2023-08-12T01:46:14;19.90;99.90
58582;DHT22;44361;51.476;5.700;2023-08-12T01:48:40;20.00;99.90
58582;DHT22;44361;51.476;5.700;2023-08-12T01:51:05;20.00;99.90
58582;DHT22;44361;51.476;5.700;2023-08-12T01:53:31;20.00;99.90
58582;DHT22;44361;51.476;5.700;2023-08-12T01:55:56;20.00;99.90
58582;DHT22;44361;51.476;5.700;2023-08-12T01:58:22;20.00;99.90
58582;DHT22;44361;51.476;5.700;2023-08-12T02:00:47;20.00;99.90
58582;DHT22;44361;51.476;5.700;2023-08-12T02:03:13;20.10;99.90
58582;DHT22;44361;51.476;5.700;2023-08-12T02:05:38;20.00;99.90
58582;DHT22;44361;51.476;5.700;2023-08-12T02:08:05;20.00;99.90
58582;DHT22;44361;51.476;5.700;2023-08-12T02:10:30;20.00;99.90
58582;DHT22;44361;51.476;5.700;2023-08-12T02:12:56;20.00;99.90
58582;DHT22;44361;51.476;5.700;2023-08-12T02:15:21;20.00;99.90
58582;DHT22;44361;51.476;5.700;2023-08-12T02:17:47;20.10;99.90
58582;DHT22;44361;51.476;5.700;2023-08-12T02:20:12;20.00;99.90
58582;DHT22;44361;51.476;5.700;2023-08-12T02:22:38;20.10;99.90
58582;DHT22;44361;51.476;5.700;2023-08-12T02:25:04;20.00;99.90
58582;DHT22;44361;51.476;5.700;2023-08-12T02:27:29;20.00;99.90
58582;DHT22;44361;51.476;5.700;2023-08-12T02:29:55;20.00;99.90
58582;DHT22;44361;51.476;5.700;2023-08-12T02:32:20;20.10;99.90
58582;DHT22;44361;51.476;5.700;2023-08-12T02:34:46;20.10;99.90
58582;DHT22;44361;51.476;5.700;2023-08-12T02:37:11;20.00;99.90
58582;DHT22;44361;51.476;5.700;2023-08-12T02:39:38;19.90;99.90
58582;DHT22;44361;51.476;5.700;2023-08-12T02:42:04;19.90;99.90
58582;DHT22;44361;51.476;5.700;2023-08-12T02:44:30;19.90;99.90
58582;DHT22;44361;51.476;5.700;2023-08-12T02:46:55;19.90;99.90
58582;DHT22;44361;51.476;5.700;2023-08-12T02:49:21;19.90;99.90
58582;DHT22;44361;51.476;5.700;2023-08-12T02:51:46;19.90;99.90
58582;DHT22;44361;51.476;5.700;2023-08-12T02:54:12;19.80;99.90
58582;DHT22;44361;51.476;5.700;2023-08-12T02:56:37;19.80;99.90
58582;DHT22;44361;51.476;5.700;2023-08-12T02:59:03;19.70;99.90
58582;DHT22;44361;51.476;5.700;2023-08-12T03:01:29;19.80;99.90
58582;DHT22;44361;51.476;5.700;2023-08-12T03:03:55;19.70;99.90
58582;DHT22;44361;51.476;5.700;2023-08-12T03:06:20;19.70;99.90
58582;DHT22;44361;51.476;5.700;2023-08-12T03:08:46;19.70;99.90
58582;DHT22;44361;51.476;5.700;2023-08-12T03:11:12;19.70;99.90
58582;DHT22;44361;51.476;5.700;2023-08-12T03:13:37;19.70;99.90
58582;DHT22;44361;51.476;5.700;2023-08-12T03:16:03;19.70;99.90
58582;DHT22;44361;51.476;5.700;2023-08-12T03:18:28;19.70;99.90
58582;DHT22;44361;51.476;5.700;2023-08-12T03:20:54;19.70;99.90
58582;DHT22;44361;51.476;5.700;2023-08-12T03:23:19;19.70;99.90
58582;DHT22;44361;51.476;5.700;2023-08-12T03:25:47;19.80;99.90
58582;DHT22;44361;51.476;5.700;2023-08-12T03:28:13;19.70;99.90
58582;DHT22;44361;51.476;5.700;2023-08-12T03:30:38;19.80;99.90
58582;DHT22;44361;51.476;5.700;2023-08-12T03:33:04;19.70;99.90
58582;DHT22;44361;51.476;5.700;2023-08-12T03:35:29;19.70;99.90
58582;DHT22;44361;51.476;5.700;2023-08-12T03:37:55;19.80;99.90
58582;DHT22;44361;51.476;5.700;2023-08-12T03:40:20;19.70;99.90
58582;DHT22;44361;51.476;5.700;2023-08-12T03:42:46;19.70;99.90
58582;DHT22;44361;51.476;5.700;2023-08-12T03:45:12;19.70;99.90
58582;DHT22;44361;51.476;5.700;2023-08-12T03:47:37;19.80;99.90
58582;DHT22;44361;51.476;5.700;2023-08-12T03:50:03;19.80;99.90
58582;DHT22;44361;51.476;5.700;2023-08-12T03:52:28;19.70;99.90
58582;DHT22;44361;51.476;5.700;2023-08-12T03:54:54;19.70;99.90
58582;DHT22;44361;51.476;5.700;2023-08-12T03:57:19;19.70;99.90
58582;DHT22;44361;51.476;5.700;2023-08-12T03:59:45;19.70;99.90
58582;DHT22;44361;51.476;5.700;2023-08-12T04:02:10;19.70;99.90
58582;DHT22;44361;51.476;5.700;2023-08-12T04:04:36;19.70;99.90
58582;DHT22;44361;51.476;5.700;2023-08-12T04:07:02;19.60;99.90
58582;DHT22;44361;51.476;5.700;2023-08-12T04:09:27;19.70;99.90
58582;DHT22;44361;51.476;5.700;2023-08-12T04:11:53;19.60;99.90
58582;DHT22;44361;51.476;5.700;2023-08-12T04:14:18;19.60;99.90
58582;DHT22;44361;51.476;5.700;2023-08-12T04:16:44;19.70;99.90
58582;DHT22;44361;51.476;5.700;2023-08-12T04:19:09;19.60;99.90
58582;DHT22;44361;51.476;5.700;2023-08-12T04:21:35;19.70;99.90
58582;DHT22;44361;51.476;5.700;2023-08-12T04:24:00;19.70;99.90
58582;DHT22;44361;51.476;5.700;2023-08-12T04:26:26;19.70;99.90
58582;DHT22;44361;51.476;5.700;2023-08-12T04:28:51;19.70;99.90
58582;DHT22;44361;51.476;5.700;2023-08-12T04:31:18;19.70;99.90
58582;DHT22;44361;51.476;5.700;2023-08-12T04:33:43;19.70;99.90
58582;DHT22;44361;51.476;5.700;2023-08-12T04:36:09;19.70;99.90
58582;DHT22;44361;51.476;5.700;2023-08-12T04:38:34;19.70;99.90
58582;DHT22;44361;51.476;5.700;2023-08-12T04:41:00;19.60;99.90
58582;DHT22;44361;51.476;5.700;2023-08-12T04:43:26;19.70;99.90
58582;DHT22;44361;51.476;5.700;2023-08-12T04:45:52;19.60;99.90
58582;DHT22;44361;51.476;5.700;2023-08-12T04:48:17;19.70;99.90
58582;DHT22;44361;51.476;5.700;2023-08-12T04:50:43;19.70;99.90
58582;DHT22;44361;51.476;5.700;2023-08-12T04:53:08;19.60;99.90
58582;DHT22;44361;51.476;5.700;2023-08-12T04:55:35;19.60;99.90
58582;DHT22;44361;51.476;5.700;2023-08-12T04:58:01;19.60;99.90
58582;DHT22;44361;51.476;5.700;2023-08-12T05:00:27;19.60;99.90
58582;DHT22;44361;51.476;5.700;2023-08-12T05:02:53;19.60;99.90
58582;DHT22;44361;51.476;5.700;2023-08-12T05:05:19;19.50;99.90
58582;DHT22;44361;51.476;5.700;2023-08-12T05:07:45;19.50;99.90
58582;DHT22;44361;51.476;5.700;2023-08-12T05:10:17;19.50;99.90
58582;DHT22;44361;51.476;5.700;2023-08-12T05:12:46;19.50;99.90
58582;DHT22;44361;51.476;5.700;2023-08-12T05:15:12;19.40;99.90
58582;DHT22;44361;51.476;5.700;2023-08-12T05:17:38;19.40;99.90
58582;DHT22;44361;51.476;5.700;2023-08-12T05:20:04;19.50;99.90
58582;DHT22;44361;51.476;5.700;2023-08-12T05:22:30;19.40;99.90
58582;DHT22;44361;51.476;5.700;2023-08-12T05:24:55;19.40;99.90
58582;DHT22;44361;51.476;5.700;2023-08-12T05:27:21;19.40;99.90
58582;DHT22;44361;51.476;5.700;2023-08-12T05:29:47;19.40;99.90
58582;DHT22;44361;51.476;5.700;2023-08-12T05:32:12;19.40;99.90
58582;DHT22;44361;51.476;5.700;2023-08-12T05:34:38;19.20;99.90
58582;DHT22;44361;51.476;5.700;2023-08-12T05:37:03;19.20;99.90
58582;DHT22;44361;51.476;5.700;2023-08-12T05:39:29;19.20;99.90
58582;DHT22;44361;51.476;5.700;2023-08-12T05:41:54;19.20;99.90
58582;DHT22;44361;51.476;5.700;2023-08-12T05:44:20;19.10;99.90
58582;DHT22;44361;51.476;5.700;2023-08-12T05:46:45;19.10;99.90
58582;DHT22;44361;51.476;5.700;2023-08-12T05:49:11;19.10;99.90
58582;DHT22;44361;51.476;5.700;2023-08-12T05:51:37;19.10;99.90
58582;DHT22;44361;51.476;5.700;2023-08-12T05:54:04;19.10;99.90
58582;DHT22;44361;51.476;5.700;2023-08-12T05:56:29;19.10;99.90
58582;DHT22;44361;51.476;5.700;2023-08-12T05:58:55;19.10;99.90
58582;DHT22;44361;51.476;5.700;2023-08-12T06:01:20;19.10;99.90
58582;DHT22;44361;51.476;5.700;2023-08-12T06:03:46;19.10;99.90
58582;DHT22;44361;51.476;5.700;2023-08-12T06:06:11;19.10;99.90
58582;DHT22;44361;51.476;5.700;2023-08-12T06:08:37;19.10;99.90
58582;DHT22;44361;51.476;5.700;2023-08-12T06:11:02;19.10;99.90
58582;DHT22;44361;51.476;5.700;2023-08-12T06:13:28;19.10;99.90
58582;DHT22;44361;51.476;5.700;2023-08-12T06:15:53;19.10;99.90
58582;DHT22;44361;51.476;5.700;2023-08-12T06:18:19;19.10;99.90
58582;DHT22;44361;51.476;5.700;2023-08-12T06:20:44;19.20;99.90
58582;DHT22;44361;51.476;5.700;2023-08-12T06:23:10;19.20;99.90
58582;DHT22;44361;51.476;5.700;2023-08-12T06:25:35;19.20;99.90
58582;DHT22;44361;51.476;5.700;2023-08-12T06:28:02;19.20;99.90
58582;DHT22;44361;51.476;5.700;2023-08-12T06:30:29;19.20;99.90
58582;DHT22;44361;51.476;5.700;2023-08-12T06:32:55;19.20;99.90
58582;DHT22;44361;51.476;5.700;2023-08-12T06:35:21;19.30;99.90
58582;DHT22;44361;51.476;5.700;2023-08-12T06:37:46;19.30;99.90
58582;DHT22;44361;51.476;5.700;2023-08-12T06:40:12;19.30;99.90
58582;DHT22;44361;51.476;5.700;2023-08-12T06:42:38;19.30;99.90
58582;DHT22;44361;51.476;5.700;2023-08-12T06:45:03;19.40;99.90
58582;DHT22;44361;51.476;5.700;2023-08-12T06:47:29;19.50;99.90
58582;DHT22;44361;51.476;5.700;2023-08-12T06:49:55;19.50;99.90
58582;DHT22;44361;51.476;5.700;2023-08-12T06:52:21;19.60;99.90
58582;DHT22;44361;51.476;5.700;2023-08-12T06:54:47;19.60;99.90
58582;DHT22;44361;51.476;5.700;2023-08-12T06:57:12;19.60;99.90
58582;DHT22;44361;51.476;5.700;2023-08-12T06:59:38;19.80;99.90
58582;DHT22;44361;51.476;5.700;2023-08-12T07:02:04;19.90;99.90
58582;DHT22;44361;51.476;5.700;2023-08-12T07:04:30;20.00;99.90
58582;DHT22;44361;51.476;5.700;2023-08-12T07:06:55;20.00;99.90
58582;DHT22;44361;51.476;5.700;2023-08-12T07:09:21;19.90;99.90
58582;DHT22;44361;51.476;5.700;2023-08-12T07:11:46;19.90;99.90
58582;DHT22;44361;51.476;5.700;2023-08-12T07:14:12;20.00;99.90
58582;DHT22;44361;51.476;5.700;2023-08-12T07:16:37;20.00;99.90
58582;DHT22;44361;51.476;5.700;2023-08-12T07:19:03;20.10;99.90
58582;DHT22;44361;51.476;5.700;2023-08-12T07:21:28;20.00;99.90
58582;DHT22;44361;51.476;5.700;2023-08-12T07:23:54;20.00;99.90
58582;DHT22;44361;51.476;5.700;2023-08-12T07:26:19;20.00;99.90
58582;DHT22;44361;51.476;5.700;2023-08-12T07:28:45;20.00;99.90
58582;DHT22;44361;51.476;5.700;2023-08-12T07:31:10;20.10;99.90
58582;DHT22;44361;51.476;5.700;2023-08-12T07:33:36;20.10;99.90
58582;DHT22;44361;51.476;5.700;2023-08-12T07:36:02;20.20;99.90
58582;DHT22;44361;51.476;5.700;2023-08-12T07:38:27;20.30;99.90
58582;DHT22;44361;51.476;5.700;2023-08-12T07:40:54;20.30;99.90
58582;DHT22;44361;51.476;5.700;2023-08-12T07:43:19;20.40;99.90
58582;DHT22;44361;51.476;5.700;2023-08-12T07:45:45;20.50;99.90
58582;DHT22;44361;51.476;5.700;2023-08-12T07:48:10;20.40;99.90
58582;DHT22;44361;51.476;5.700;2023-08-12T07:50:36;20.40;99.90
58582;DHT22;44361;51.476;5.700;2023-08-12T07:53:02;20.40;99.90
58582;DHT22;44361;51.476;5.700;2023-08-12T07:55:27;20.40;99.90
58582;DHT22;44361;51.476;5.700;2023-08-12T07:57:53;20.40;99.90
58582;DHT22;44361;51.476;5.700;2023-08-12T08:00:19;20.30;99.90
58582;DHT22;44361;51.476;5.700;2023-08-12T08:02:45;20.40;99.90
58582;DHT22;44361;51.476;5.700;2023-08-12T08:05:10;20.40;99.90
58582;DHT22;44361;51.476;5.700;2023-08-12T08:07:36;20.50;99.90
58582;DHT22;44361;51.476;5.700;2023-08-12T08:10:02;20.40;99.90
58582;DHT22;44361;51.476;5.700;2023-08-12T08:12:27;20.50;99.90
58582;DHT22;44361;51.476;5.700;2023-08-12T08:14:53;20.70;99.90
58582;DHT22;44361;51.476;5.700;2023-08-12T08:17:18;20.70;99.90
58582;DHT22;44361;51.476;5.700;2023-08-12T08:19:44;20.80;99.90
58582;DHT22;44361;51.476;5.700;2023-08-12T08:22:09;20.80;99.90
58582;DHT22;44361;51.476;5.700;2023-08-12T08:24:35;20.80;99.90
58582;DHT22;44361;51.476;5.700;2023-08-12T08:27:00;20.90;99.90
58582;DHT22;44361;51.476;5.700;2023-08-12T08:29:26;21.00;99.90
58582;DHT22;44361;51.476;5.700;2023-08-12T08:31:51;21.20;99.90
58582;DHT22;44361;51.476;5.700;2023-08-12T08:34:17;21.10;99.90
58582;DHT22;44361;51.476;5.700;2023-08-12T08:36:42;21.00;99.90
58582;DHT22;44361;51.476;5.700;2023-08-12T08:39:08;20.90;99.90
58582;DHT22;44361;51.476;5.700;2023-08-12T08:41:38;20.90;99.90
58582;DHT22;44361;51.476;5.700;2023-08-12T08:44:07;20.80;99.90
58582;DHT22;44361;51.476;5.700;2023-08-12T08:46:33;20.80;99.90
58582;DHT22;44361;51.476;5.700;2023-08-12T08:48:59;20.70;99.90
58582;DHT22;44361;51.476;5.700;2023-08-12T08:51:32;20.60;99.90
58582;DHT22;44361;51.476;5.700;2023-08-12T08:53:58;20.50;99.90
58582;DHT22;44361;51.476;5.700;2023-08-12T08:56:24;20.50;99.90
58582;DHT22;44361;51.476;5.700;2023-08-12T08:58:50;20.50;99.90
58582;DHT22;44361;51.476;5.700;2023-08-12T09:01:17;20.80;99.90
58582;DHT22;44361;51.476;5.700;2023-08-12T09:03:45;21.20;99.90
58582;DHT22;44361;51.476;5.700;2023-08-12T09:06:12;21.50;99.90
58582;DHT22;44361;51.476;5.700;2023-08-12T09:08:38;22.10;99.90
58582;DHT22;44361;51.476;5.700;2023-08-12T09:11:06;22.70;99.90
58582;DHT22;44361;51.476;5.700;2023-08-12T09:13:32;22.90;99.90
58582;DHT22;44361;51.476;5.700;2023-08-12T09:15:58;22.90;99.90
58582;DHT22;44361;51.476;5.700;2023-08-12T09:18:23;22.90;99.90
58582;DHT22;44361;51.476;5.700;2023-08-12T09:20:51;22.80;99.90
58582;DHT22;44361;51.476;5.700;2023-08-12T09:23:16;22.60;99.90
58582;DHT22;44361;51.476;5.700;2023-08-12T09:25:44;22.50;99.90
58582;DHT22;44361;51.476;5.700;2023-08-12T09:28:10;22.60;99.90
58582;DHT22;44361;51.476;5.700;2023-08-12T09:30:36;22.50;99.90
58582;DHT22;44361;51.476;5.700;2023-08-12T09:33:06;22.70;99.90
58582;DHT22;44361;51.476;5.700;2023-08-12T09:35:39;22.70;99.90
58582;DHT22;44361;51.476;5.700;2023-08-12T09:38:07;22.60;99.90
58582;DHT22;44361;51.476;5.700;2023-08-12T09:40:34;22.40;99.90
58582;DHT22;44361;51.476;5.700;2023-08-12T09:43:01;22.10;99.90
58582;DHT22;44361;51.476;5.700;2023-08-12T09:45:26;21.80;99.90
58582;DHT22;44361;51.476;5.700;2023-08-12T09:47:55;21.80;99.90
58582;DHT22;44361;51.476;5.700;2023-08-12T09:50:22;21.70;99.90
58582;DHT22;44361;51.476;5.700;2023-08-12T09:52:48;21.80;99.90
58582;DHT22;44361;51.476;5.700;2023-08-12T09:55:16;22.10;99.90
58582;DHT22;44361;51.476;5.700;2023-08-12T09:57:43;22.10;99.90
58582;DHT22;44361;51.476;5.700;2023-08-12T10:00:11;22.40;99.90
58582;DHT22;44361;51.476;5.700;2023-08-12T10:02:42;22.80;99.90
58582;DHT22;44361;51.476;5.700;2023-08-12T10:05:12;22.90;99.90
58582;DHT22;44361;51.476;5.700;2023-08-12T10:07:39;23.20;99.90
58582;DHT22;44361;51.476;5.700;2023-08-12T10:10:05;23.30;99.90
58582;DHT22;44361;51.476;5.700;2023-08-12T10:12:33;23.10;99.90
58582;DHT22;44361;51.476;5.700;2023-08-12T10:15:00;22.80;99.90
58582;DHT22;44361;51.476;5.700;2023-08-12T10:17:26;22.60;99.90
58582;DHT22;44361;51.476;5.700;2023-08-12T10:19:56;22.60;99.90
58582;DHT22;44361;51.476;5.700;2023-08-12T10:22:24;22.60;99.90
58582;DHT22;44361;51.476;5.700;2023-08-12T10:24:51;22.60;99.90
58582;DHT22;44361;51.476;5.700;2023-08-12T10:27:17;22.50;99.90
58582;DHT22;44361;51.476;5.700;2023-08-12T10:29:43;22.30;99.90
58582;DHT22;44361;51.476;5.700;2023-08-12T10:32:09;22.10;99.90
58582;DHT22;44361;51.476;5.700;2023-08-12T10:34:35;22.00;99.90
58582;DHT22;44361;51.476;5.700;2023-08-12T10:37:03;22.20;99.90
58582;DHT22;44361;51.476;5.700;2023-08-12T10:39:32;22.50;99.90
58582;DHT22;44361;51.476;5.700;2023-08-12T10:41:58;22.60;99.90
58582;DHT22;44361;51.476;5.700;2023-08-12T10:44:38;22.40;99.90
58582;DHT22;44361;51.476;5.700;2023-08-12T10:47:10;22.30;99.90
58582;DHT22;44361;51.476;5.700;2023-08-12T10:49:43;22.50;99.90
58582;DHT22;44361;51.476;5.700;2023-08-12T10:52:29;22.90;99.90
58582;DHT22;44361;51.476;5.700;2023-08-12T10:55:16;23.10;99.90
58582;DHT22;44361;51.476;5.700;2023-08-12T10:57:42;23.10;99.90
58582;DHT22;44361;51.476;5.700;2023-08-12T11:00:13;23.10;99.90
58582;DHT22;44361;51.476;5.700;2023-08-12T11:02:39;23.10;99.90
58582;DHT22;44361;51.476;5.700;2023-08-12T11:05:10;23.10;99.90
58582;DHT22;44361;51.476;5.700;2023-08-12T11:07:44;23.20;99.90
58582;DHT22;44361;51.476;5.700;2023-08-12T11:10:16;23.20;99.90
58582;DHT22;44361;51.476;5.700;2023-08-12T11:13:02;23.10;99.90
58582;DHT22;44361;51.476;5.700;2023-08-12T11:15:40;23.10;99.90
58582;DHT22;44361;51.476;5.700;2023-08-12T11:18:18;23.10;99.90
58582;DHT22;44361;51.476;5.700;2023-08-12T11:20:45;23.10;99.90
58582;DHT22;44361;51.476;5.700;2023-08-12T11:23:12;23.30;99.90
58582;DHT22;44361;51.476;5.700;2023-08-12T11:25:39;23.70;99.90
58582;DHT22;44361;51.476;5.700;2023-08-12T11:28:05;23.80;99.90
58582;DHT22;44361;51.476;5.700;2023-08-12T11:30:31;24.20;99.90
58582;DHT22;44361;51.476;5.700;2023-08-12T11:32:58;24.30;99.90
58582;DHT22;44361;51.476;5.700;2023-08-12T11:35:24;24.50;99.90
58582;DHT22;44361;51.476;5.700;2023-08-12T11:37:52;24.50;99.90
58582;DHT22;44361;51.476;5.700;2023-08-12T11:40:19;24.20;99.90
58582;DHT22;44361;51.476;5.700;2023-08-12T11:42:46;24.10;99.90
58582;DHT22;44361;51.476;5.700;2023-08-12T11:45:14;23.90;99.90
58582;DHT22;44361;51.476;5.700;2023-08-12T11:47:40;23.90;99.90
58582;DHT22;44361;51.476;5.700;2023-08-12T11:50:08;23.80;99.90
58582;DHT22;44361;51.476;5.700;2023-08-12T11:52:35;23.50;99.90
58582;DHT22;44361;51.476;5.700;2023-08-12T11:55:01;23.40;99.90
58582;DHT22;44361;51.476;5.700;2023-08-12T11:57:27;23.80;99.90
58582;DHT22;44361;51.476;5.700;2023-08-12T11:59:58;24.20;99.90
58582;DHT22;44361;51.476;5.700;2023-08-12T12:02:25;24.10;99.90
58582;DHT22;44361;51.476;5.700;2023-08-12T12:04:51;24.20;99.90
58582;DHT22;44361;51.476;5.700;2023-08-12T12:07:22;24.50;99.90
58582;DHT22;44361;51.476;5.700;2023-08-12T12:09:51;24.60;99.90
58582;DHT22;44361;51.476;5.700;2023-08-12T12:12:17;24.60;99.90
58582;DHT22;44361;51.476;5.700;2023-08-12T12:14:43;24.60;99.90
58582;DHT22;44361;51.476;5.700;2023-08-12T12:17:09;24.70;99.90
58582;DHT22;44361;51.476;5.700;2023-08-12T12:19:40;24.80;99.90
58582;DHT22;44361;51.476;5.700;2023-08-12T12:22:06;24.70;99.90
58582;DHT22;44361;51.476;5.700;2023-08-12T12:24:44;24.50;99.90
58582;DHT22;44361;51.476;5.700;2023-08-12T12:27:11;24.10;99.90
58582;DHT22;44361;51.476;5.700;2023-08-12T12:29:36;23.90;99.90
58582;DHT22;44361;51.476;5.700;2023-08-12T12:32:02;24.20;99.90
58582;DHT22;44361;51.476;5.700;2023-08-12T12:34:27;24.50;99.90
58582;DHT22;44361;51.476;5.700;2023-08-12T12:36:53;24.70;99.90
58582;DHT22;44361;51.476;5.700;2023-08-12T12:39:18;24.90;99.90
58582;DHT22;44361;51.476;5.700;2023-08-12T12:41:44;25.40;99.90
58582;DHT22;44361;51.476;5.700;2023-08-12T12:44:09;24.90;99.90
58582;DHT22;44361;51.476;5.700;2023-08-12T12:46:35;24.60;99.90
58582;DHT22;44361;51.476;5.700;2023-08-12T12:49:00;24.10;99.90
58582;DHT22;44361;51.476;5.700;2023-08-12T12:51:26;23.70;99.90
58582;DHT22;44361;51.476;5.700;2023-08-12T12:53:52;23.40;99.90
58582;DHT22;44361;51.476;5.700;2023-08-12T12:56:18;23.60;99.90
58582;DHT22;44361;51.476;5.700;2023-08-12T12:58:44;23.70;99.90
58582;DHT22;44361;51.476;5.700;2023-08-12T13:01:09;23.60;99.90
58582;DHT22;44361;51.476;5.700;2023-08-12T13:03:35;23.30;99.90
58582;DHT22;44361;51.476;5.700;2023-08-12T13:06:00;23.40;99.90
58582;DHT22;44361;51.476;5.700;2023-08-12T13:08:28;23.60;99.90
58582;DHT22;44361;51.476;5.700;2023-08-12T13:10:54;23.50;99.90
58582;DHT22;44361;51.476;5.700;2023-08-12T13:13:20;23.50;99.90
58582;DHT22;44361;51.476;5.700;2023-08-12T13:15:46;23.50;99.90
58582;DHT22;44361;51.476;5.700;2023-08-12T13:18:12;23.70;99.90
58582;DHT22;44361;51.476;5.700;2023-08-12T13:20:37;23.90;99.90
58582;DHT22;44361;51.476;5.700;2023-08-12T13:23:04;24.20;99.90
58582;DHT22;44361;51.476;5.700;2023-08-12T13:25:31;24.10;99.90
58582;DHT22;44361;51.476;5.700;2023-08-12T13:27:58;24.00;99.90
58582;DHT22;44361;51.476;5.700;2023-08-12T13:30:23;24.20;99.90
58582;DHT22;44361;51.476;5.700;2023-08-12T13:32:49;24.50;99.90
58582;DHT22;44361;51.476;5.700;2023-08-12T13:35:15;24.60;99.90
58582;DHT22;44361;51.476;5.700;2023-08-12T13:37:40;24.60;99.90
58582;DHT22;44361;51.476;5.700;2023-08-12T13:40:06;24.60;99.90
58582;DHT22;44361;51.476;5.700;2023-08-12T13:42:32;24.50;99.90
58582;DHT22;44361;51.476;5.700;2023-08-12T13:44:57;24.60;99.90
58582;DHT22;44361;51.476;5.700;2023-08-12T13:47:23;24.50;99.90
58582;DHT22;44361;51.476;5.700;2023-08-12T13:49:48;24.90;99.90
58582;DHT22;44361;51.476;5.700;2023-08-12T13:52:15;25.40;99.90
58582;DHT22;44361;51.476;5.700;2023-08-12T13:54:40;25.60;99.90
58582;DHT22;44361;51.476;5.700;2023-08-12T13:57:06;25.20;99.40
58582;DHT22;44361;51.476;5.700;2023-08-12T13:59:31;24.70;99.90
58582;DHT22;44361;51.476;5.700;2023-08-12T14:01:57;24.70;99.90
58582;DHT22;44361;51.476;5.700;2023-08-12T14:04:22;24.40;99.90
58582;DHT22;44361;51.476;5.700;2023-08-12T14:06:48;24.10;99.90
58582;DHT22;44361;51.476;5.700;2023-08-12T14:09:13;24.00;99.90
58582;DHT22;44361;51.476;5.700;2023-08-12T14:11:40;24.10;99.90
58582;DHT22;44361;51.476;5.700;2023-08-12T14:14:05;24.40;99.90
58582;DHT22;44361;51.476;5.700;2023-08-12T14:16:31;24.70;99.90
58582;DHT22;44361;51.476;5.700;2023-08-12T14:18:56;24.60;99.90
58582;DHT22;44361;51.476;5.700;2023-08-12T14:21:22;24.60;99.90
58582;DHT22;44361;51.476;5.700;2023-08-12T14:23:47;24.60;99.70
58582;DHT22;44361;51.476;5.700;2023-08-12T14:26:13;24.60;99.90
58582;DHT22;44361;51.476;5.700;2023-08-12T14:28:38;24.60;99.10
58582;DHT22;44361;51.476;5.700;2023-08-12T14:31:04;24.50;98.60
58582;DHT22;44361;51.476;5.700;2023-08-12T14:33:29;24.30;98.60
58582;DHT22;44361;51.476;5.700;2023-08-12T14:35:58;24.20;97.50
58582;DHT22;44361;51.476;5.700;2023-08-12T14:38:24;24.20;98.00
58582;DHT22;44361;51.476;5.700;2023-08-12T14:40:49;24.10;98.80
58582;DHT22;44361;51.476;5.700;2023-08-12T14:43:15;23.90;97.70
58582;DHT22;44361;51.476;5.700;2023-08-12T14:45:40;23.90;99.10
58582;DHT22;44361;51.476;5.700;2023-08-12T14:48:06;24.00;99.10
58582;DHT22;44361;51.476;5.700;2023-08-12T14:50:32;24.00;98.00
58582;DHT22;44361;51.476;5.700;2023-08-12T14:52:58;24.20;99.20
58582;DHT22;44361;51.476;5.700;2023-08-12T14:55:23;24.60;99.30
58582;DHT22;44361;51.476;5.700;2023-08-12T14:57:49;25.00;98.70
58582;DHT22;44361;51.476;5.700;2023-08-12T15:00:15;25.50;97.80
58582;DHT22;44361;51.476;5.700;2023-08-12T15:02:40;25.40;96.40
58582;DHT22;44361;51.476;5.700;2023-08-12T15:05:06;25.10;97.70
58582;DHT22;44361;51.476;5.700;2023-08-12T15:07:32;25.00;99.70
58582;DHT22;44361;51.476;5.700;2023-08-12T15:09:58;25.00;98.90
58582;DHT22;44361;51.476;5.700;2023-08-12T15:12:24;25.10;99.80
58582;DHT22;44361;51.476;5.700;2023-08-12T15:14:50;25.20;99.90
58582;DHT22;44361;51.476;5.700;2023-08-12T15:17:16;25.30;99.50
58582;DHT22;44361;51.476;5.700;2023-08-12T15:19:42;25.50;99.50
58582;DHT22;44361;51.476;5.700;2023-08-12T15:22:07;25.50;99.90
58582;DHT22;44361;51.476;5.700;2023-08-12T15:24:33;25.40;99.20
58582;DHT22;44361;51.476;5.700;2023-08-12T15:26:58;25.30;99.90